Time;durP1;ratioP1;P1;durP2;ratioP2;P2;SDS_P1;SDS_P2;PMS_P1;PMS_P2;Temp;Humidity;BMP_temperature;BMP_pressure;BME280_temperature;BME280_humidity;BME280_pressure;Samples;Min_cycle;Max_cycle;Signal;HPM_P1;HPM_P2
2023/05/13 00:00:56;;;;;;;17.65;7.65;;;;;;;10.26;47.97;100372.34;6097141;23;20101;-75
2023/05/13 00:04:24;;;;;;;16.85;6.15;;;;;;;10.17;48.73;100368.00;6071464;23;20019;-71
2023/05/13 00:07:50;;;;;;;31.13;6.93;;;;;;;10.16;48.62;100373.19;6097406;23;20101;-74
2023/05/13 00:11:16;;;;;;;28.27;6.60;;;;;;;10.12;48.55;100368.88;6097504;23;20022;-73
2023/05/13 00:14:45;;;;;;;25.50;7.00;;;;;;;10.04;48.67;100366.25;6072571;23;20029;-74
2023/05/13 00:18:11;;;;;;;23.98;7.20;;;;;;;10.05;49.10;100367.97;6097026;23;20408;-75
2023/05/13 00:21:38;;;;;;;25.52;6.82;;;;;;;10.08;48.64;100386.16;6097041;23;20045;-74
2023/05/13 00:25:03;;;;;;;20.48;6.30;;;;;;;10.01;48.81;100361.88;6097288;23;20029;-73
2023/05/13 00:28:29;;;;;;;15.25;6.15;;;;;;;10.10;48.75;100384.44;6097075;23;20026;-75
2023/05/13 00:31:55;;;;;;;18.80;6.60;;;;;;;10.08;48.65;100379.25;6096447;23;20018;-74
2023/05/13 00:35:26;;;;;;;19.48;6.13;;;;;;;10.05;48.49;100384.44;6070088;23;20530;-74
2023/05/13 00:38:56;;;;;;;19.35;6.45;;;;;;;9.92;48.58;100380.94;6096783;23;20014;-72
2023/05/13 00:42:24;;;;;;;21.23;7.95;;;;;;;9.85;49.44;100391.31;6095822;23;20128;-73
2023/05/13 00:45:51;;;;;;;17.95;7.05;;;;;;;9.70;50.05;100386.91;6096754;23;20018;-74
2023/05/13 00:49:17;;;;;;;28.17;7.75;;;;;;;9.64;50.67;100398.16;6091342;23;20033;-73
2023/05/13 00:52:44;;;;;;;25.67;7.00;;;;;;;9.57;51.12;100392.06;6096588;23;20045;-73
2023/05/13 00:56:14;;;;;;;15.70;6.60;;;;;;;9.58;51.27;100404.22;6096847;23;20029;-71
2023/05/13 00:59:40;;;;;;;21.83;6.05;;;;;;;9.66;51.39;100396.44;6096910;23;20018;-74
2023/05/13 01:03:27;;;;;;;19.45;6.88;;;;;;;9.72;51.49;100401.66;6072384;23;20022;-75
2023/05/13 01:07:10;;;;;;;16.67;5.78;;;;;;;9.84;51.01;100400.81;6071539;23;20025;-74
2023/05/13 01:10:21;;;;;;;13.57;5.53;;;;;;;9.87;50.67;100398.25;6014542;23;20473;-74
2023/05/13 01:13:54;;;;;;;16.52;5.72;;;;;;;9.92;50.56;100401.72;6096067;23;20014;-74
2023/05/13 01:17:38;;;;;;;16.08;5.72;;;;;;;10.01;50.35;100395.69;6071163;23;20097;-73
2023/05/13 01:21:06;;;;;;;17.30;5.97;;;;;;;10.09;50.08;100400.91;6068906;23;20026;-73
2023/05/13 01:24:33;;;;;;;19.70;6.40;;;;;;;10.11;49.50;100399.19;6071173;23;20045;-74
2023/05/13 01:27:59;;;;;;;31.00;7.57;;;;;;;10.00;49.40;100396.56;6070687;23;20109;-75
2023/05/13 01:31:39;;;;;;;14.38;6.05;;;;;;;10.09;50.01;100398.31;6070870;23;20018;-74
2023/05/13 01:35:10;;;;;;;14.90;6.15;;;;;;;10.16;49.59;100397.47;6070654;23;20061;-74
2023/05/13 01:38:36;;;;;;;23.00;7.07;;;;;;;10.16;49.02;100402.69;6069063;23;20026;-74
2023/05/13 01:42:02;;;;;;;16.33;6.38;;;;;;;10.28;49.28;100406.16;6095765;23;20018;-74
2023/05/13 01:45:28;;;;;;;16.77;6.30;;;;;;;10.36;48.89;100407.03;6070110;23;20018;-74
2023/05/13 01:48:57;;;;;;;15.88;5.78;;;;;;;10.46;48.95;100411.44;6071776;23;20023;-73
2023/05/13 01:52:24;;;;;;;17.98;6.10;;;;;;;10.49;48.67;100400.16;6070345;23;20026;-73
2023/05/13 01:56:00;;;;;;;13.02;5.90;;;;;;;10.60;48.40;100402.78;6096205;23;20058;-76
2023/05/13 01:59:29;;;;;;;11.45;5.75;;;;;;;10.73;48.12;100420.13;6096818;23;20384;-75
2023/05/13 02:03:01;;;;;;;16.73;5.50;;;;;;;10.74;47.54;100401.03;6071288;23;20026;-74
2023/05/13 02:06:27;;;;;;;15.40;5.40;;;;;;;10.91;47.46;100413.19;6070812;23;20048;-74
2023/05/13 02:09:58;;;;;;;14.27;5.60;;;;;;;10.99;47.35;100414.03;6096018;23;20026;-74
2023/05/13 02:13:21;;;;;;;15.13;5.45;;;;;;;11.17;47.14;100420.97;6095332;23;20151;-75
2023/05/13 02:16:49;;;;;;;13.63;5.55;;;;;;;11.29;47.08;100418.34;6096620;23;20102;-75
2023/05/13 02:20:20;;;;;;;14.20;5.32;;;;;;;11.38;46.77;100412.22;6071027;23;20049;-75
2023/05/13 02:23:46;;;;;;;9.95;5.90;;;;;;;11.48;46.06;100407.88;6070439;23;20051;-73
2023/05/13 02:27:15;;;;;;;13.50;5.68;;;;;;;11.65;46.13;100415.63;6095648;23;20093;-72
2023/05/13 02:30:39;;;;;;;12.07;5.63;;;;;;;11.81;46.04;100416.44;6095754;23;20022;-73
2023/05/13 02:34:05;;;;;;;13.23;5.63;;;;;;;11.96;45.47;100423.34;6095515;23;20018;-74
2023/05/13 02:37:35;;;;;;;14.73;5.80;;;;;;;12.08;45.27;100429.41;6070631;23;20443;-75
2023/05/13 02:41:10;;;;;;;17.13;5.55;;;;;;;12.23;45.23;100421.50;6095857;23;20019;-75
2023/05/13 02:44:41;;;;;;;12.25;6.07;;;;;;;12.40;44.75;100425.75;6096217;23;20553;-73
2023/05/13 02:48:11;;;;;;;11.57;6.03;;;;;;;12.54;44.32;100434.34;6070532;23;20447;-75
2023/05/13 02:51:48;;;;;;;13.75;6.20;;;;;;;12.71;44.19;100431.63;6071273;23;20023;-75
2023/05/13 02:55:17;;;;;;;14.50;5.68;;;;;;;12.81;44.15;100429.81;6097399;23;20026;-75
2023/05/13 02:58:46;;;;;;;12.27;5.50;;;;;;;12.95;43.45;100443.59;6071665;23;20105;-73
2023/05/13 03:02:12;;;;;;;11.48;5.85;;;;;;;13.11;43.71;100435.66;6097006;23;20390;-75
2023/05/13 03:05:37;;;;;;;14.65;5.90;;;;;;;13.28;43.03;100439.84;6071787;23;20371;-73
2023/05/13 03:09:05;;;;;;;8.27;5.65;;;;;;;13.43;42.79;100439.72;6097223;23;20027;-74
2023/05/13 03:12:31;;;;;;;12.32;5.22;;;;;;;13.59;42.42;100439.53;6097578;23;20355;-74
2023/05/13 03:16:00;;;;;;;10.50;5.05;;;;;;;13.79;42.48;100448.00;6071538;23;20419;-74
2023/05/13 03:19:26;;;;;;;13.23;5.63;;;;;;;13.82;42.08;100429.66;6095848;23;20458;-74
2023/05/13 03:22:55;;;;;;;10.98;5.68;;;;;;;14.01;42.09;100429.47;6071812;23;20019;-73
2023/05/13 03:26:24;;;;;;;15.32;6.15;;;;;;;14.28;41.87;100448.28;6097064;23;20030;-75
2023/05/13 03:29:51;;;;;;;12.45;5.68;;;;;;;14.48;41.71;100445.38;6070796;23;20041;-76
2023/05/13 03:33:35;;;;;;;12.07;5.80;;;;;;;14.71;41.35;100447.66;6048050;23;20022;-74
2023/05/13 03:37:03;;;;;;;10.55;4.68;;;;;;;14.91;41.06;100443.88;6071647;23;20097;-75
2023/05/13 03:40:34;;;;;;;10.77;5.00;;;;;;;15.13;40.77;100441.75;6047748;23;20022;-75
2023/05/13 03:44:01;;;;;;;13.38;4.93;;;;;;;15.34;40.30;100445.72;6095991;23;20030;-74
2023/05/13 03:47:31;;;;;;;12.18;5.38;;;;;;;15.57;39.99;100441.81;6071281;23;20529;-74
2023/05/13 03:50:58;;;;;;;12.52;5.53;;;;;;;15.88;39.63;100443.88;6067977;23;20359;-75
2023/05/13 03:54:24;;;;;;;9.02;4.55;;;;;;;16.13;39.16;100439.84;6071049;23;20454;-75
2023/05/13 03:57:50;;;;;;;12.45;5.05;;;;;;;16.31;38.83;100434.22;6071268;23;20025;-75
2023/05/13 04:01:18;;;;;;;8.32;4.82;;;;;;;16.57;38.54;100432.72;6096887;23;20019;-77
2023/05/13 04:04:49;;;;;;;9.95;4.55;;;;;;;16.83;37.91;100442.63;6097040;23;20022;-74
2023/05/13 04:08:15;;;;;;;10.95;4.80;;;;;;;17.15;37.74;100442.75;6071416;23;20363;-74
2023/05/13 04:11:46;;;;;;;10.60;4.55;;;;;;;17.37;37.10;100437.75;6096645;23;20488;-75
2023/05/13 04:15:11;;;;;;;8.98;4.43;;;;;;;17.68;36.69;100450.09;6070260;23;20367;-74
2023/05/13 04:18:42;;;;;;;11.93;4.22;;;;;;;17.94;36.22;100447.59;6095277;23;20020;-76
2023/05/13 04:22:08;;;;;;;10.13;4.70;;;;;;;18.24;35.87;100447.63;6071058;23;20411;-75
2023/05/13 04:25:37;;;;;;;14.07;4.88;;;;;;;18.45;35.52;100446.09;6069235;23;20077;-75
2023/05/13 04:29:07;;;;;;;8.60;4.63;;;;;;;18.58;35.15;100443.94;6096857;23;20035;-75
2023/05/13 04:32:35;;;;;;;12.35;4.60;;;;;;;18.91;34.60;100447.25;6071018;23;20019;-76
2023/05/13 04:36:03;;;;;;;12.10;5.03;;;;;;;19.03;34.14;100435.44;6047262;23;20034;-77
2023/05/13 04:39:31;;;;;;;9.90;4.85;;;;;;;19.35;33.96;100441.41;6047213;23;20112;-76
2023/05/13 04:43:02;;;;;;;12.98;4.75;;;;;;;19.70;33.17;100444.53;6072199;23;20090;-75
2023/05/13 04:46:50;;;;;;;8.90;4.50;;;;;;;19.88;32.80;100438.66;6091587;23;20018;-75
2023/05/13 04:50:16;;;;;;;8.15;4.60;;;;;;;20.11;32.65;100440.44;6095954;23;20018;-73
2023/05/13 04:53:45;;;;;;;8.23;4.55;;;;;;;20.49;32.31;100431.91;6069785;23;20031;-74
2023/05/13 04:57:13;;;;;;;10.50;4.60;;;;;;;20.72;31.67;100434.50;6096550;23;20359;-75
2023/05/13 05:00:40;;;;;;;6.93;4.53;;;;;;;20.91;31.50;100429.34;6096760;23;20097;-74
2023/05/13 05:04:09;;;;;;;13.50;5.13;;;;;;;21.13;31.24;100420.47;6070703;23;20496;-74
2023/05/13 05:07:39;;;;;;;7.97;4.43;;;;;;;21.51;30.71;100440.91;6070324;23;20023;-74
2023/05/13 05:11:10;;;;;;;7.00;3.85;;;;;;;21.66;30.33;100440.25;6070291;23;20125;-74
2023/05/13 05:14:38;;;;;;;10.93;4.30;;;;;;;22.01;30.12;100430.75;6069952;23;20018;-74
2023/05/13 05:18:12;;;;;;;12.15;4.80;;;;;;;22.30;29.85;100434.66;6095317;23;20022;-74
2023/05/13 05:21:44;;;;;;;12.30;5.70;;;;;;;22.58;29.42;100435.16;6096710;23;20049;-74
2023/05/13 05:25:12;;;;;;;13.85;5.32;;;;;;;23.01;29.10;100425.91;6095920;23;20026;-73
2023/05/13 05:28:39;;;;;;;15.32;5.00;;;;;;;23.39;28.21;100432.84;6070359;23;20026;-74
2023/05/13 05:32:06;;;;;;;12.30;5.40;;;;;;;23.85;27.96;100410.91;6070345;23;20037;-74
2023/05/13 05:35:35;;;;;;;11.02;5.85;;;;;;;25.76;26.75;100433.66;6070686;23;20097;-74
2023/05/13 05:39:30;;;;;;;10.55;4.85;;;;;;;29.20;24.00;100420.56;6095802;23;20018;-75
2023/05/13 05:42:59;;;;;;;8.68;4.32;;;;;;;31.69;21.26;100414.50;6095714;23;20351;-75
2023/05/13 05:46:31;;;;;;;11.43;4.40;;;;;;;33.80;19.69;100414.00;6096014;23;20018;-75
2023/05/13 05:49:58;;;;;;;7.90;4.45;;;;;;;35.39;18.46;100416.09;6095313;23;20018;-71
2023/05/13 05:53:34;;;;;;;10.20;4.68;;;;;;;36.91;16.80;100413.41;6047257;23;20028;-75
2023/05/13 05:57:14;;;;;;;11.20;3.80;;;;;;;37.99;15.74;100423.94;6070958;23;20045;-75
2023/05/13 06:00:49;;;;;;;16.80;4.35;;;;;;;39.39;14.15;100418.38;6095660;23;20026;-77
2023/05/13 06:04:37;;;;;;;6.15;3.58;;;;;;;40.76;13.49;100429.53;6091606;23;20022;-74
2023/05/13 06:07:47;;;;;;;;;;;;;;;41.61;12.98;100421.25;6070908;23;20045;-75
2023/05/13 06:11:15;;;;;;;6.82;3.70;;;;;;;42.01;12.33;100420.59;6095903;23;20037;-75
2023/05/13 06:14:43;;;;;;;14.05;4.10;;;;;;;42.56;10.95;100422.38;6094752;23;20028;-73
2023/05/13 06:18:10;;;;;;;9.38;3.65;;;;;;;42.37;10.67;100419.44;6092940;23;20348;-74
2023/05/13 06:21:35;;;;;;;12.48;3.60;;;;;;;42.83;10.46;100423.22;6095228;23;20034;-74
2023/05/13 06:25:11;;;;;;;8.85;3.75;;;;;;;43.72;9.60;100424.66;6097768;23;20014;-74
2023/05/13 06:28:39;;;;;;;15.30;4.50;;;;;;;44.59;9.14;100424.16;6096427;23;20022;-74
2023/05/13 06:32:07;;;;;;;7.53;3.63;;;;;;;45.21;8.85;100425.25;6095728;23;20022;-73
2023/05/13 06:35:34;;;;;;;7.55;4.15;;;;;;;45.17;8.69;100418.53;6095175;23;20105;-73
2023/05/13 06:39:10;;;;;;;7.47;3.60;;;;;;;45.63;8.16;100425.38;6096981;23;20351;-74
2023/05/13 06:42:39;;;;;;;9.30;3.95;;;;;;;46.57;8.06;100423.19;6095208;23;20518;-75
2023/05/13 06:46:10;;;;;;;7.38;3.90;;;;;;;47.01;7.20;100422.88;6095457;23;20029;-74
2023/05/13 06:49:39;;;;;;;16.17;3.80;;;;;;;46.77;7.56;100422.84;6097642;23;20018;-75
2023/05/13 06:53:17;;;;;;;9.38;4.20;;;;;;;47.50;6.79;100419.78;6096541;23;20022;-74
2023/05/13 06:56:45;;;;;;;6.55;3.70;;;;;;;47.77;6.76;100410.94;6096645;23;20030;-75
2023/05/13 07:00:38;;;;;;;13.20;4.07;;;;;;;48.36;6.33;100404.28;6097080;23;20058;-76
2023/05/13 07:04:05;;;;;;;8.00;3.30;;;;;;;48.72;6.03;100410.34;6071797;23;20019;-77
2023/05/13 07:07:52;;;;;;;7.30;3.42;;;;;;;49.44;5.58;100394.75;6096842;23;20390;-75
2023/05/13 07:11:17;;;;;;;7.18;3.67;;;;;;;50.24;5.83;100398.03;6070555;23;20033;-76
2023/05/13 07:14:47;;;;;;;7.93;4.10;;;;;;;49.98;5.34;100395.88;6094891;23;20478;-76
2023/05/13 07:18:19;;;;;;;6.57;4.47;;;;;;;49.91;5.17;100402.69;6096304;23;20073;-75
2023/05/13 07:21:50;;;;;;;12.27;3.90;;;;;;;49.88;4.85;100395.78;6096872;23;20324;-76
2023/05/13 07:25:17;;;;;;;7.28;4.00;;;;;;;50.42;4.97;100399.56;6096729;23;20023;-76
2023/05/13 07:28:44;;;;;;;9.02;3.85;;;;;;;50.85;4.97;100400.44;6046673;23;20398;-76
2023/05/13 07:32:21;;;;;;;12.68;3.38;;;;;;;51.13;4.97;100403.84;6097203;23;20113;-78
2023/05/13 07:44:54;;;;;;;7.13;3.42;;;;;;;52.09;4.29;100398.00;5873410;24;20040;-85
2023/05/13 08:02:03;;;;;;;6.50;3.75;;;;;;;51.29;4.38;100390.09;6012813;23;20055;-87
2023/05/13 08:05:42;;;;;;;7.03;3.10;;;;;;;50.97;4.24;100394.66;6014218;23;20042;-86
2023/05/13 08:09:13;;;;;;;8.27;3.40;;;;;;;50.62;4.07;100383.13;6013004;23;20034;-92
2023/05/13 08:13:15;;;;;;;13.57;3.40;;;;;;;49.73;3.76;100377.94;5957120;23;20024;-90
2023/05/13 08:16:53;;;;;;;10.33;3.23;;;;;;;49.75;4.06;100385.94;5998222;23;20023;-90
2023/05/13 08:20:39;;;;;;;9.55;3.50;;;;;;;49.78;4.31;100381.81;6042301;23;20100;-88
2023/05/13 08:24:11;;;;;;;8.30;3.33;;;;;;;50.51;4.10;100380.56;6043528;23;20034;-89
2023/05/13 08:27:38;;;;;;;12.40;3.50;;;;;;;50.16;4.11;100382.78;6033725;23;20027;-88
2023/05/13 08:31:09;;;;;;;7.25;3.63;;;;;;;50.79;4.39;100379.31;6025114;23;20082;-90
2023/05/13 08:34:42;;;;;;;7.05;3.42;;;;;;;51.04;4.06;100380.56;6100736;23;20019;-89
2023/05/13 08:38:18;;;;;;;9.48;3.70;;;;;;;51.19;3.46;100371.47;6102295;23;20030;-83
2023/05/13 08:41:56;;;;;;;12.27;4.55;;;;;;;49.78;4.54;100359.72;6107670;23;20101;-83
2023/05/13 08:45:25;;;;;;;13.20;3.95;;;;;;;48.22;4.77;100357.69;6103198;23;20018;-87
2023/05/13 08:49:03;;;;;;;8.45;3.45;;;;;;;47.47;5.04;100357.72;6076536;23;20022;-89
2023/05/13 08:52:36;;;;;;;10.80;3.78;;;;;;;47.53;4.53;100353.16;6077107;23;20026;-87
2023/05/13 08:56:14;;;;;;;11.18;3.40;;;;;;;47.95;4.88;100355.63;6074310;23;20037;-87
2023/05/13 09:00:20;;;;;;;8.85;3.60;;;;;;;47.99;5.07;100344.09;6043180;23;20129;-85
2023/05/13 09:08:36;;;;;;;6.38;3.25;;;;;;;47.43;4.98;100355.72;6073584;23;20133;-82
2023/05/13 09:12:10;;;;;;;7.63;3.08;;;;;;;48.34;4.31;100346.59;6070809;23;20352;-80
2023/05/13 09:16:08;;;;;;;12.80;3.00;;;;;;;47.98;4.51;100345.19;6072110;23;20031;-82
2023/05/13 09:19:40;;;;;;;13.57;3.13;;;;;;;47.42;4.85;100337.50;6043532;23;20023;-84
2023/05/13 09:22:59;;;;;;;8.07;2.55;;;;;;;47.15;4.78;100343.56;6069273;23;20019;-87
2023/05/13 09:26:45;;;;;;;8.43;2.80;;;;;;;47.92;4.61;100331.28;6046289;23;20033;-83
2023/05/13 09:38:44;;;;;;;7.25;2.60;;;;;;;47.57;4.40;100318.53;6067353;23;19921;-87
2023/05/13 09:48:25;;;;;;;10.50;4.50;;;;;;;47.69;4.77;100315.72;6074337;23;20106;-89
2023/05/13 09:57:18;;;;;;;9.77;3.78;;;;;;;45.97;5.29;100312.28;6090985;23;20033;-79
2023/05/13 10:01:02;;;;;;;13.45;3.65;;;;;;;45.12;5.63;100307.53;6046181;23;20026;-78
2023/05/13 10:16:55;;;;;;;14.93;4.05;;;;;;;44.88;5.74;100284.63;6003534;23;20027;-78
2023/05/13 10:20:52;;;;;;;5.57;3.17;;;;;;;44.81;6.11;100281.06;5953467;24;20520;-77
2023/05/13 10:24:04;;;;;;;9.32;2.95;;;;;;;42.91;6.42;100298.22;5975891;24;20032;-80
2023/05/13 10:26:44;;;;;;;4.95;2.75;;;;;;;41.23;6.95;100299.75;5947805;24;20512;-80
2023/05/13 10:29:37;;;;;;;8.77;3.40;;;;;;;39.70;7.64;100303.81;5955132;24;20028;-76
2023/05/13 10:32:08;;;;;;;7.32;4.00;;;;;;;38.54;8.39;100305.19;5977368;24;20055;-77
2023/05/13 10:34:40;;;;;;;7.93;3.17;;;;;;;37.68;8.55;100297.19;5978382;24;20032;-78
2023/05/13 10:40:48;;;;;;;6.60;3.63;;;;;;;35.43;9.81;100293.03;5957912;23;20102;-77
2023/05/13 10:43:21;;;;;;;6.05;3.10;;;;;;;34.62;10.45;100283.50;6007766;23;20126;-77
2023/05/13 10:46:05;;;;;;;5.72;3.42;;;;;;;34.10;10.36;100295.91;6036993;23;20253;-77
2023/05/13 10:48:49;;;;;;;5.65;3.97;;;;;;;33.70;10.96;100295.34;6016768;23;20146;-78
2023/05/13 10:52:03;;;;;;;5.25;3.47;;;;;;;33.03;11.27;100296.38;6087124;23;20403;-76
2023/05/13 10:55:42;;;;;;;7.65;3.70;;;;;;;32.42;11.46;100298.50;6095387;23;20026;-77
2023/05/13 10:59:18;;;;;;;5.00;3.10;;;;;;;31.89;12.29;100290.88;6095763;23;20030;-78
2023/05/13 11:03:00;;;;;;;6.82;3.30;;;;;;;31.48;12.85;100291.75;6096063;23;20055;-78
2023/05/13 11:06:41;;;;;;;5.82;2.70;;;;;;;30.86;12.87;100294.47;6089644;23;20026;-79
2023/05/13 11:13:23;;;;;;;6.65;3.72;;;;;;;30.16;13.88;100288.75;6086116;23;20018;-78
2023/05/13 11:17:06;;;;;;;5.80;2.78;;;;;;;29.96;13.96;100287.72;6067516;23;20037;-77
2023/05/13 11:20:55;;;;;;;8.13;3.03;;;;;;;29.53;14.13;100289.41;6094706;23;20029;-76
2023/05/13 11:24:35;;;;;;;5.38;2.85;;;;;;;29.22;14.48;100281.16;6073697;23;20038;-76
2023/05/13 11:28:09;;;;;;;5.03;2.45;;;;;;;28.99;14.55;100289.19;6097921;23;20019;-78
2023/05/13 11:31:39;;;;;;;8.70;3.22;;;;;;;28.81;14.51;100284.28;6070208;23;20029;-76
2023/05/13 11:35:28;;;;;;;9.13;2.95;;;;;;;28.45;14.74;100286.16;6071483;23;20086;-74
2023/05/13 11:43:06;;;;;;;6.03;3.38;;;;;;;27.65;15.29;100210.97;6034823;23;20427;-77
2023/05/13 11:46:35;;;;;;;6.53;3.15;;;;;;;27.84;15.33;100276.41;6095096;23;20029;-77
2023/05/13 11:50:08;;;;;;;9.65;2.72;;;;;;;27.60;15.85;100287.06;6096977;23;20029;-77
2023/05/13 11:53:49;;;;;;;8.50;3.08;;;;;;;27.34;15.82;100282.63;6098033;23;20114;-79
2023/05/13 11:57:24;;;;;;;8.30;2.78;;;;;;;27.15;15.77;100268.88;6096376;23;20312;-77
2023/05/13 12:00:59;;;;;;;13.25;2.92;;;;;;;26.72;16.01;100278.94;6097391;23;20140;-78
2023/05/13 12:04:50;;;;;;;4.32;2.33;;;;;;;26.40;16.64;100273.97;6074943;23;20022;-76
2023/05/13 12:08:22;;;;;;;5.18;2.88;;;;;;;26.17;16.58;100262.22;6096580;23;20352;-76
2023/05/13 12:12:40;;;;;;;5.22;2.67;;;;;;;25.93;16.94;100259.34;6097167;23;20022;-78
2023/05/13 12:16:29;;;;;;;4.75;2.40;;;;;;;25.80;16.76;100268.13;6094965;23;20034;-76
2023/05/13 12:20:05;;;;;;;4.53;2.50;;;;;;;25.63;17.34;100268.38;6096320;23;20018;-77
2023/05/13 12:23:59;;;;;;;8.77;3.30;;;;;;;25.54;17.61;100270.69;6088398;23;20037;-77
2023/05/13 12:27:26;;;;;;;4.88;2.78;;;;;;;25.42;17.86;100258.13;6095538;23;20026;-77
2023/05/13 12:30:53;;;;;;;7.85;2.92;;;;;;;25.18;17.72;100249.88;6096629;23;20058;-76
2023/05/13 12:34:27;;;;;;;5.50;2.67;;;;;;;25.18;17.64;100266.72;6099914;23;20050;-77
2023/05/13 12:37:58;;;;;;;8.30;3.30;;;;;;;25.11;18.22;100258.28;6096446;23;20022;-77
2023/05/13 12:41:32;;;;;;;8.73;3.03;;;;;;;25.04;18.16;100258.75;6095750;23;20034;-76
2023/05/13 12:44:58;;;;;;;6.00;2.70;;;;;;;24.96;18.17;100259.22;6047201;23;20014;-75
2023/05/13 12:48:27;;;;;;;6.47;2.15;;;;;;;24.89;17.91;100253.41;6070071;23;20029;-76
2023/05/13 12:51:55;;;;;;;6.53;3.28;;;;;;;24.84;17.67;100262.66;6098155;23;20029;-78
2023/05/13 12:55:27;;;;;;;9.75;4.38;;;;;;;24.78;18.05;100263.88;6095862;23;20033;-76
2023/05/13 12:58:57;;;;;;;8.50;3.38;;;;;;;24.64;18.21;100254.03;6096021;23;20030;-75
2023/05/13 13:02:24;;;;;;;8.65;2.63;;;;;;;24.52;18.50;100260.97;6096692;23;20042;-78
2023/05/13 13:05:55;;;;;;;7.82;2.95;;;;;;;24.50;18.46;100255.72;6072503;23;20027;-78
2023/05/13 13:09:23;;;;;;;3.85;2.60;;;;;;;24.46;18.47;100258.66;6097249;23;20027;-76
2023/05/13 13:13:05;;;;;;;5.82;3.10;;;;;;;24.36;18.46;100259.22;6094716;23;20022;-78
2023/05/13 13:16:31;;;;;;;11.20;3.70;;;;;;;24.32;18.70;100256.81;6095095;23;20022;-79
2023/05/13 13:19:58;;;;;;;10.13;3.53;;;;;;;24.24;19.12;100254.63;6092748;23;20022;-80
2023/05/13 13:23:12;;;;;;;;;;;;;;;24.25;19.14;100259.00;6074173;23;20018;-75
2023/05/13 13:27:19;;;;;;;10.33;2.90;;;;;;;24.21;19.02;100262.78;6096454;23;19920;-79
2023/05/13 13:30:58;;;;;;;10.13;3.42;;;;;;;24.16;19.05;100265.72;6068670;23;20033;-75
2023/05/13 13:34:25;;;;;;;7.45;3.60;;;;;;;24.03;19.27;100260.25;6070791;23;20018;-77
2023/05/13 13:37:54;;;;;;;12.02;2.97;;;;;;;24.05;19.59;100252.22;6069727;23;20113;-78
2023/05/13 13:41:24;;;;;;;4.97;2.80;;;;;;;23.98;19.63;100257.00;6070231;23;20479;-78
2023/05/13 13:44:50;;;;;;;6.70;2.85;;;;;;;23.87;20.01;100243.47;6095145;23;20025;-76
2023/05/13 13:48:19;;;;;;;7.45;3.17;;;;;;;23.83;19.88;100248.09;6095124;23;20109;-80
2023/05/13 13:57:16;;;;;;;10.82;3.00;;;;;;;23.68;20.09;100243.63;6094889;23;20056;-79
2023/05/13 14:10:05;;;;;;;6.03;3.00;;;;;;;23.59;20.24;100245.03;6095333;23;20351;-76
2023/05/13 14:14:27;;;;;;;6.45;2.42;;;;;;;23.54;20.61;100244.41;5950197;24;20469;-77
2023/05/13 14:19:16;;;;;;;7.38;3.08;;;;;;;23.46;20.80;100240.41;5950769;24;20083;-80
2023/05/13 14:23:40;;;;;;;9.05;2.67;;;;;;;23.42;21.01;100241.53;5951090;24;20035;-79
2023/05/13 14:27:26;;;;;;;4.45;2.58;;;;;;;23.37;21.40;100235.59;5951594;24;20050;-78
2023/05/13 14:31:27;;;;;;;6.57;3.23;;;;;;;23.35;21.00;100231.34;5976083;23;20418;-77
2023/05/13 14:36:15;;;;;;;9.27;3.00;;;;;;;23.29;21.37;100219.22;6035767;23;20027;-78
2023/05/13 14:39:54;;;;;;;6.68;3.17;;;;;;;23.30;21.29;100226.25;6011954;23;20512;-76
2023/05/13 14:43:52;;;;;;;4.72;2.60;;;;;;;23.22;21.55;100233.81;6035613;23;20030;-76
2023/05/13 14:51:42;;;;;;;10.27;2.67;;;;;;;23.22;21.77;100231.16;6097339;23;20350;-75
2023/05/13 14:55:21;;;;;;;7.00;3.08;;;;;;;23.17;21.59;100211.00;6096957;23;20038;-78
2023/05/13 14:59:04;;;;;;;10.13;2.95;;;;;;;23.19;22.02;100223.31;6096311;23;20059;-77
2023/05/13 15:02:47;;;;;;;11.50;2.92;;;;;;;23.10;22.18;100227.34;6096765;23;20060;-78
2023/05/13 15:06:21;;;;;;;9.60;3.42;;;;;;;22.97;22.31;100205.91;6071359;23;20025;-77
2023/05/13 15:09:48;;;;;;;8.98;2.80;;;;;;;22.97;22.41;100222.69;6096861;23;20026;-76
2023/05/13 15:13:17;;;;;;;6.32;2.92;;;;;;;22.91;22.50;100225.69;6071096;23;20077;-76
2023/05/13 15:16:45;;;;;;;5.05;3.13;;;;;;;22.79;22.76;100208.63;6069566;23;20399;-77
2023/05/13 15:20:19;;;;;;;11.75;5.20;;;;;;;22.78;22.85;100211.34;6070869;23;20019;-79
2023/05/13 15:23:47;;;;;;;7.32;3.10;;;;;;;22.87;22.81;100232.09;6096993;23;20018;-76
2023/05/13 15:39:58;;;;;;;8.52;3.05;;;;;;;22.86;22.76;100231.22;6035658;23;20132;-77
2023/05/13 15:44:10;;;;;;;6.63;3.10;;;;;;;22.78;22.54;100228.13;5897535;24;20474;-76
2023/05/13 15:48:39;;;;;;;6.07;2.85;;;;;;;22.67;22.45;100225.19;5850690;24;20036;-76
2023/05/13 15:52:10;;;;;;;6.15;3.38;;;;;;;22.56;22.82;100221.31;5896365;24;20025;-77
2023/05/13 16:09:48;;;;;;;11.88;3.30;;;;;;;22.02;23.53;100239.06;5871168;24;20103;-76
2023/05/13 16:14:09;;;;;;;9.00;3.63;;;;;;;21.86;23.60;100237.19;5880977;24;20036;-77
2023/05/13 16:17:43;;;;;;;11.18;3.92;;;;;;;21.69;23.80;100231.84;5897728;24;20060;-78
2023/05/13 16:33:45;;;;;;;9.55;4.45;;;;;;;21.30;24.53;100231.84;5878428;24;20079;-77
2023/05/13 16:37:54;;;;;;;15.20;4.40;;;;;;;21.25;24.38;100239.16;5979527;24;20136;-76
2023/05/13 16:41:22;;;;;;;10.10;4.00;;;;;;;21.18;25.00;100243.88;5955683;24;20055;-77
2023/05/13 16:49:49;;;;;;;8.45;5.05;;;;;;;21.07;25.11;100252.28;5952206;24;20089;-76
2023/05/13 16:53:41;;;;;;;11.85;4.80;;;;;;;21.06;25.15;100253.22;5930743;24;20028;-78
2023/05/13 16:57:12;;;;;;;12.73;4.82;;;;;;;21.06;25.75;100247.94;5948302;24;20382;-79
2023/05/13 17:01:44;;;;;;;10.23;4.30;;;;;;;21.11;25.59;100260.06;5924756;23;20500;-78
2023/05/13 17:05:42;;;;;;;13.27;3.63;;;;;;;20.99;25.76;100266.78;5998217;23;20024;-77
2023/05/13 17:09:23;;;;;;;8.63;3.30;;;;;;;20.88;25.81;100278.72;5988091;23;20030;-78
2023/05/13 17:13:18;;;;;;;8.38;3.30;;;;;;;20.68;26.18;100286.63;6006687;23;20024;-77
2023/05/13 17:25:31;;;;;;;14.18;4.22;;;;;;;20.37;27.14;100294.09;5952213;24;20095;-79
2023/05/13 17:30:10;;;;;;;7.00;3.33;;;;;;;20.31;27.65;100300.47;5952582;24;20070;-77
2023/05/13 17:38:05;;;;;;;8.90;4.00;;;;;;;20.14;28.12;100306.47;5901603;24;20406;-78
2023/05/13 17:51:06;;;;;;;8.00;3.65;;;;;;;19.94;28.99;100311.69;5903529;24;20052;-77
2023/05/13 17:55:25;;;;;;;9.07;3.38;;;;;;;19.91;29.07;100312.66;5979133;24;20366;-77
2023/05/13 18:04:28;;;;;;;6.82;3.38;;;;;;;19.85;29.76;100324.28;5923061;24;20073;-77
2023/05/13 18:08:07;;;;;;;9.35;3.90;;;;;;;19.82;29.72;100324.41;5907452;24;20362;-78
2023/05/13 18:30:12;;;;;;;10.20;4.43;;;;;;;19.29;30.63;100335.25;5888769;24;20482;-78
2023/05/13 18:33:58;;;;;;;15.45;7.15;;;;;;;19.14;30.95;100355.97;5898153;24;20025;-79
2023/05/13 18:37:35;;;;;;;15.30;5.75;;;;;;;18.94;31.41;100352.22;5876308;24;20491;-79
2023/05/13 18:46:02;;;;;;;17.20;6.95;;;;;;;18.61;31.99;100364.78;5885685;24;20032;-81
2023/05/13 18:50:37;;;;;;;15.07;6.85;;;;;;;18.45;32.23;100361.78;5919558;24;20025;-78
2023/05/13 19:03:53;;;;;;;19.02;8.63;;;;;;;18.02;32.93;100364.88;5874171;24;20060;-79
2023/05/13 19:08:17;;;;;;;13.88;9.13;;;;;;;17.88;33.52;100369.69;5801281;24;20329;-77
2023/05/13 19:25:25;;;;;;;15.60;7.30;;;;;;;17.30;34.50;100383.63;5852093;24;19927;-78
2023/05/13 19:34:46;;;;;;;16.30;10.40;;;;;;;16.94;35.72;100392.41;5843039;24;20109;-79
2023/05/13 19:48:28;;;;;;;6.97;4.18;;;;;;;16.69;36.51;100407.91;5791255;24;20104;-77
2023/05/13 19:53:05;;;;;;;7.18;4.25;;;;;;;16.77;36.58;100405.13;5818327;24;20042;-77
2023/05/13 19:57:37;;;;;;;6.45;4.30;;;;;;;16.83;36.37;100413.72;5791451;24;20127;-78
2023/05/13 20:01:17;;;;;;;9.07;3.72;;;;;;;16.81;36.57;100415.50;5762094;24;20042;-77
2023/05/13 20:04:56;;;;;;;12.85;4.05;;;;;;;16.73;36.70;100411.34;5787477;24;20030;-79
2023/05/13 20:08:38;;;;;;;9.50;4.50;;;;;;;16.62;37.04;100411.63;5901296;24;20370;-79
2023/05/13 20:12:26;;;;;;;5.18;4.13;;;;;;;16.54;37.21;100417.91;5952288;24;20191;-77
2023/05/13 20:15:54;;;;;;;9.63;4.35;;;;;;;16.42;37.63;100420.84;6056405;23;20050;-79
2023/05/13 20:24:42;;;;;;;29.25;15.82;;;;;;;16.19;37.75;100430.09;5971612;24;20173;-78